createdAt,value
2022-10-12T00:01:07.756Z,15.45
2022-10-12T00:03:36.681Z,14.73
2022-10-12T00:06:17.948Z,12.60
2022-10-12T00:08:46.953Z,14.18
2022-10-12T00:11:19.670Z,12.90
2022-10-12T00:13:47.341Z,12.20
2022-10-12T00:16:17.987Z,14.55
2022-10-12T00:18:45.419Z,12.27
2022-10-12T00:21:16.458Z,10.00
2022-10-12T00:23:45.074Z,12.93
2022-10-12T00:26:17.987Z,10.88
2022-10-12T00:28:46.251Z,10.45
2022-10-12T00:31:20.876Z,10.07
2022-10-12T00:33:49.711Z,9.15
2022-10-12T00:36:27.933Z,10.48
2022-10-12T00:38:56.920Z,9.77
2022-10-12T00:41:30.980Z,9.02
2022-10-12T00:43:59.190Z,7.55
2022-10-12T00:46:33.943Z,7.18
2022-10-12T00:49:13.872Z,5.72
2022-10-12T00:51:44.946Z,7.72
2022-10-12T00:54:22.668Z,7.32
2022-10-12T00:56:54.417Z,7.28
2022-10-12T00:59:34.510Z,7.03
2022-10-12T01:02:01.930Z,5.47
2022-10-12T01:04:32.719Z,6.85
2022-10-12T01:07:01.334Z,6.25
2022-10-12T01:09:30.215Z,8.27
2022-10-12T01:11:58.954Z,11.70
2022-10-12T01:14:26.726Z,6.80
2022-10-12T01:16:57.358Z,5.65
2022-10-12T01:19:58.778Z,6.90
2022-10-12T01:22:26.723Z,7.47
2022-10-12T01:25:47.389Z,4.18
2022-10-12T01:28:35.633Z,6.95
2022-10-12T01:31:19.225Z,6.57
2022-10-12T01:33:52.718Z,5.93
2022-10-12T01:36:44.370Z,5.57
2022-10-12T01:39:25.800Z,5.32
2022-10-12T01:42:15.840Z,4.97
2022-10-12T01:44:43.274Z,5.57
2022-10-12T01:47:10.685Z,5.05
2022-10-12T01:49:38.629Z,3.33
2022-10-12T01:52:22.480Z,5.10
2022-10-12T01:55:33.350Z,4.05
2022-10-12T01:58:14.773Z,5.03
2022-10-12T02:00:56.044Z,4.20
2022-10-12T02:03:46.254Z,3.97
2022-10-12T02:06:20.080Z,2.95
2022-10-12T02:09:04.765Z,5.95
2022-10-12T02:11:36.321Z,4.27
2022-10-12T02:14:18.068Z,4.25
2022-10-12T02:16:58.954Z,5.22
2022-10-12T02:19:34.198Z,5.00
2022-10-12T02:22:07.912Z,6.95
2022-10-12T02:24:40.457Z,3.60
2022-10-12T02:27:11.692Z,5.07
2022-10-12T02:29:43.935Z,2.80
2022-10-12T02:32:43.680Z,3.95
2022-10-12T02:35:50.040Z,4.07
2022-10-12T02:38:35.713Z,2.95
2022-10-12T02:41:14.952Z,3.63
2022-10-12T02:44:04.087Z,2.80
2022-10-12T02:46:34.472Z,3.10
2022-10-12T02:49:03.815Z,2.97
2022-10-12T02:51:34.095Z,3.90
2022-10-12T02:54:02.633Z,5.30
2022-10-12T02:56:30.003Z,3.15
2022-10-12T02:58:57.535Z,3.30
2022-10-12T03:01:25.148Z,2.53
2022-10-12T03:03:52.528Z,4.60
2022-10-12T03:06:22.540Z,3.13
2022-10-12T03:08:49.792Z,3.15
2022-10-12T03:11:19.396Z,3.75
2022-10-12T03:13:46.881Z,2.45
2022-10-12T03:16:14.503Z,2.20
2022-10-12T03:18:41.997Z,2.13
2022-10-12T03:21:09.698Z,4.82
2022-10-12T03:23:37.600Z,3.13
2022-10-12T03:26:06.254Z,4.55
2022-10-12T03:28:34.511Z,3.28
2022-10-12T03:31:02.148Z,3.85
2022-10-12T03:33:29.454Z,3.38
2022-10-12T03:35:56.735Z,3.42
2022-10-12T03:38:24.059Z,4.30
2022-10-12T03:40:51.568Z,3.60
2022-10-12T03:43:19.058Z,3.03
2022-10-12T03:45:47.076Z,3.00
2022-10-12T03:48:14.488Z,6.05
2022-10-12T03:50:42.213Z,5.63
2022-10-12T03:53:10.258Z,3.33
2022-10-12T03:55:37.618Z,2.67
2022-10-12T03:58:05.160Z,2.53
2022-10-12T04:00:32.617Z,3.88
2022-10-12T04:03:00.243Z,4.55
2022-10-12T04:05:27.590Z,4.32
2022-10-12T04:07:55.051Z,2.83
2022-10-12T04:10:22.957Z,2.72
2022-10-12T04:12:50.442Z,3.22
2022-10-12T04:15:23.733Z,4.22
2022-10-12T04:17:51.143Z,4.10
2022-10-12T04:20:18.751Z,3.92
2022-10-12T04:22:48.931Z,2.85
2022-10-12T04:25:16.488Z,3.08
2022-10-12T04:27:43.892Z,3.50
2022-10-12T04:30:12.394Z,3.08
2022-10-12T04:32:40.006Z,3.35
2022-10-12T04:35:07.758Z,3.00
2022-10-12T04:37:35.273Z,2.70
2022-10-12T04:40:03.352Z,3.33
2022-10-12T04:42:30.825Z,4.13
2022-10-12T04:44:58.359Z,5.22
2022-10-12T04:47:25.698Z,5.20
2022-10-12T04:49:53.215Z,2.40
2022-10-12T04:52:20.566Z,2.85
2022-10-12T04:54:47.848Z,2.30
2022-10-12T04:57:15.031Z,3.83
2022-10-12T04:59:42.431Z,4.35
2022-10-12T05:02:09.850Z,2.63
2022-10-12T05:04:37.465Z,2.92
2022-10-12T05:07:04.921Z,3.28
2022-10-12T05:09:32.456Z,1.95
2022-10-12T05:11:59.896Z,2.28
2022-10-12T05:14:29.207Z,4.63
2022-10-12T05:17:02.649Z,4.50
2022-10-12T05:19:30.075Z,2.65
2022-10-12T05:21:57.600Z,2.50
2022-10-12T05:24:24.920Z,6.57
2022-10-12T05:26:52.415Z,3.08
2022-10-12T05:29:23.706Z,3.80
2022-10-12T05:31:51.055Z,3.20
2022-10-12T05:34:18.455Z,2.75
2022-10-12T05:36:45.872Z,2.95
2022-10-12T05:39:13.262Z,3.90
2022-10-12T05:41:40.535Z,4.55
2022-10-12T05:44:08.139Z,3.78
2022-10-12T05:46:35.506Z,5.25
2022-10-12T05:49:03.509Z,3.20
2022-10-12T05:51:31.065Z,4.35
2022-10-12T05:54:01.467Z,6.20
2022-10-12T05:56:28.737Z,4.40
2022-10-12T05:58:56.674Z,2.45
2022-10-12T06:01:24.233Z,7.10
2022-10-12T06:03:52.192Z,5.32
2022-10-12T06:06:19.984Z,8.60
2022-10-12T06:08:47.399Z,5.95
2022-10-12T06:11:14.968Z,9.57
2022-10-12T06:13:42.643Z,3.30
2022-10-12T06:16:10.217Z,4.95
2022-10-12T06:18:37.758Z,5.28
2022-10-12T06:23:52.799Z,5.78
2022-10-12T06:26:20.197Z,7.25
2022-10-12T06:28:47.699Z,7.15
2022-10-12T06:31:15.194Z,8.13
2022-10-12T06:33:42.785Z,9.15
2022-10-12T06:36:10.436Z,15.68
2022-10-12T06:38:38.023Z,10.98
2022-10-12T06:41:05.502Z,17.88
2022-10-12T06:43:32.796Z,13.07
2022-10-12T06:46:02.210Z,16.65
2022-10-12T06:48:30.235Z,6.18
2022-10-12T06:50:58.459Z,8.60
2022-10-12T06:53:28.997Z,12.68
2022-10-12T06:55:56.566Z,8.00
2022-10-12T06:58:24.147Z,6.97
2022-10-12T07:00:52.626Z,3.72
2022-10-12T07:03:20.537Z,5.90
2022-10-12T07:05:48.040Z,7.60
2022-10-12T07:08:15.613Z,8.60
2022-10-12T07:10:43.144Z,3.97
2022-10-12T07:13:10.599Z,6.75
2022-10-12T07:15:37.987Z,3.85
2022-10-12T07:18:05.596Z,5.20
2022-10-12T07:20:33.140Z,5.90
2022-10-12T07:23:00.756Z,4.30
2022-10-12T07:25:28.207Z,6.32
2022-10-12T07:27:55.759Z,3.70
2022-10-12T07:30:23.217Z,6.43
2022-10-12T07:32:50.588Z,11.05
2022-10-12T07:35:17.865Z,3.33
2022-10-12T07:37:47.599Z,4.05
2022-10-12T07:40:15.117Z,6.38
2022-10-12T07:43:05.479Z,6.80
2022-10-12T07:45:30.301Z,2.92
2022-10-12T07:47:58.079Z,4.68
2022-10-12T07:50:25.846Z,5.30
2022-10-12T07:52:53.267Z,5.38
2022-10-12T07:55:20.751Z,5.35
2022-10-12T07:57:47.975Z,6.72
2022-10-12T08:00:15.730Z,5.57
2022-10-12T08:02:43.828Z,3.90
2022-10-12T08:05:11.338Z,8.25
2022-10-12T08:07:39.097Z,7.57
2022-10-12T08:10:07.191Z,9.52
2022-10-12T08:12:34.583Z,6.70
2022-10-12T08:15:01.979Z,7.97
2022-10-12T08:17:29.400Z,4.80
2022-10-12T08:19:56.708Z,8.23
2022-10-12T08:22:24.222Z,7.22
2022-10-12T08:24:51.825Z,10.23
2022-10-12T08:27:19.326Z,7.57
2022-10-12T08:29:47.710Z,8.48
2022-10-12T08:32:15.364Z,6.43
2022-10-12T08:34:42.856Z,9.68
2022-10-12T08:37:10.198Z,7.03
2022-10-12T08:39:37.657Z,5.88
2022-10-12T08:42:22.251Z,5.15
2022-10-12T08:45:01.561Z,6.25
2022-10-12T08:47:58.715Z,9.07
2022-10-12T08:50:43.113Z,6.72
2022-10-12T08:53:36.833Z,6.18
2022-10-12T08:56:04.561Z,6.95
2022-10-12T08:58:39.494Z,7.80
2022-10-12T09:04:31.654Z,11.65
2022-10-12T09:07:13.364Z,5.18
2022-10-12T09:09:49.257Z,8.60
2022-10-12T09:12:47.595Z,8.95
2022-10-12T09:15:32.612Z,7.32
2022-10-12T09:18:03.288Z,9.70
2022-10-12T09:20:39.136Z,9.68
2022-10-12T09:23:35.914Z,8.10
2022-10-12T09:26:15.806Z,12.43
2022-10-12T09:28:54.946Z,8.60
2022-10-12T09:31:59.496Z,8.20
2022-10-12T09:34:27.118Z,6.40
2022-10-12T09:36:55.896Z,10.15
2022-10-12T09:39:32.433Z,5.50
2022-10-12T09:42:00.097Z,9.43
2022-10-12T09:44:48.657Z,12.48
2022-10-12T09:47:27.091Z,8.93
2022-10-12T09:50:00.988Z,4.53
2022-10-12T09:52:37.644Z,10.80
2022-10-12T09:55:24.396Z,13.07
2022-10-12T09:58:00.516Z,6.68
2022-10-12T10:00:34.602Z,6.53
2022-10-12T10:03:03.442Z,6.17
2022-10-12T10:05:37.366Z,13.20
2022-10-12T10:08:24.663Z,16.75
2022-10-12T10:10:55.648Z,8.88
2022-10-12T10:13:27.482Z,12.65
2022-10-12T10:16:10.356Z,7.63
2022-10-12T10:18:44.452Z,14.35
2022-10-12T10:21:40.241Z,4.60
2022-10-12T10:27:04.206Z,10.38
2022-10-12T10:29:44.012Z,9.48
2022-10-12T10:32:29.048Z,6.00
2022-10-12T10:35:14.721Z,8.85
2022-10-12T10:37:51.766Z,10.95
2022-10-12T10:40:34.116Z,15.77
2022-10-12T10:43:16.702Z,8.70
2022-10-12T10:45:51.062Z,8.20
2022-10-12T10:48:22.809Z,11.55
2022-10-12T10:51:05.569Z,7.60
2022-10-12T10:53:48.398Z,16.30
2022-10-12T10:56:25.981Z,9.05
2022-10-12T10:59:36.169Z,13.50
2022-10-12T11:02:30.656Z,8.98
2022-10-12T11:05:06.514Z,14.13
2022-10-12T11:07:43.158Z,18.05
2022-10-12T11:10:34.397Z,10.10
2022-10-12T11:13:27.421Z,10.75
2022-10-12T11:16:07.664Z,9.82
2022-10-12T11:19:44.816Z,9.60
2022-10-12T11:22:19.821Z,10.85
2022-10-12T11:25:09.927Z,10.35
2022-10-12T11:27:40.600Z,14.02
2022-10-12T11:30:18.230Z,15.18
2022-10-12T11:33:29.566Z,13.95
2022-10-12T11:35:58.982Z,14.85
2022-10-12T11:38:38.997Z,16.30
2022-10-12T11:41:35.116Z,12.98
2022-10-12T11:44:15.158Z,11.02
2022-10-12T11:47:30.949Z,9.77
2022-10-12T11:50:05.927Z,10.18
2022-10-12T11:52:44.342Z,9.38
2022-10-12T11:55:38.979Z,9.30
2022-10-12T11:58:15.979Z,15.07
2022-10-12T12:01:23.931Z,7.78
2022-10-12T12:07:42.306Z,6.03
2022-10-12T12:10:28.383Z,9.48
2022-10-12T12:13:19.624Z,12.32
2022-10-12T12:15:52.732Z,6.65
2022-10-12T12:18:28.716Z,8.18
2022-10-12T12:21:08.453Z,11.90
2022-10-12T12:23:50.733Z,7.75
2022-10-12T12:26:21.515Z,5.88
2022-10-12T12:28:53.105Z,17.08
2022-10-12T12:31:24.413Z,5.40
2022-10-12T12:34:10.595Z,7.50
2022-10-12T12:36:45.089Z,10.07
2022-10-12T12:39:35.778Z,4.95
2022-10-12T12:42:08.936Z,5.57
2022-10-12T12:44:42.959Z,5.57
2022-10-12T12:50:22.015Z,6.78
2022-10-12T12:52:50.235Z,7.03
2022-10-12T12:55:31.614Z,7.38
2022-10-12T12:58:58.546Z,7.13
2022-10-12T13:02:12.545Z,6.95
2022-10-12T13:05:02.318Z,12.25
2022-10-12T13:08:06.621Z,5.45
2022-10-12T13:10:52.079Z,8.80
2022-10-12T13:13:53.656Z,6.05
2022-10-12T13:17:31.854Z,6.60
2022-10-12T13:19:54.268Z,6.82
2022-10-12T13:22:33.314Z,8.13
2022-10-12T13:25:08.434Z,4.95
2022-10-12T13:30:11.888Z,5.30
2022-10-12T13:32:50.989Z,9.07
2022-10-12T13:35:31.333Z,7.50
2022-10-12T13:38:20.010Z,5.50
2022-10-12T13:41:19.895Z,4.57
2022-10-12T13:44:07.005Z,7.07
2022-10-12T13:46:51.181Z,5.35
2022-10-12T13:49:27.544Z,7.50
2022-10-12T13:52:32.403Z,5.75
2022-10-12T13:55:01.901Z,8.00
2022-10-12T13:57:41.159Z,4.60
2022-10-12T14:00:14.775Z,5.70
2022-10-12T14:02:51.234Z,11.45
2022-10-12T14:05:23.032Z,4.07
2022-10-12T14:07:53.887Z,4.65
2022-10-12T14:10:33.658Z,5.97
2022-10-12T14:13:02.652Z,3.47
2022-10-12T14:15:35.346Z,3.47
2022-10-12T14:18:03.078Z,6.15
2022-10-12T14:20:39.304Z,6.78
2022-10-12T14:23:15.719Z,5.82
2022-10-12T14:25:55.330Z,3.55
2022-10-12T14:28:31.626Z,6.70
2022-10-12T14:30:59.481Z,4.07
2022-10-12T14:33:28.238Z,5.32
2022-10-12T14:36:21.021Z,9.18
2022-10-12T14:38:50.876Z,7.22
2022-10-12T14:41:43.036Z,5.88
2022-10-12T14:44:13.550Z,10.52
2022-10-12T14:47:05.895Z,11.43
2022-10-12T14:49:42.195Z,9.63
2022-10-12T14:52:36.433Z,12.38
2022-10-12T14:55:05.110Z,9.88
2022-10-12T14:57:33.189Z,12.65
2022-10-12T15:00:00.893Z,11.75
2022-10-12T15:02:33.130Z,13.43
2022-10-12T15:05:01.160Z,8.95
2022-10-12T15:07:34.277Z,10.68
2022-10-12T15:10:02.560Z,9.65
2022-10-12T15:12:30.717Z,16.50
2022-10-12T15:15:01.624Z,11.88
2022-10-12T15:17:29.187Z,15.52
2022-10-12T15:19:56.582Z,12.10
2022-10-12T15:22:26.917Z,11.35
2022-10-12T15:24:55.572Z,12.15
2022-10-12T15:27:23.179Z,11.52
2022-10-12T15:29:50.978Z,20.35
2022-10-12T15:32:19.917Z,13.38
2022-10-12T15:34:47.788Z,12.85
2022-10-12T15:37:15.519Z,17.83
2022-10-12T15:39:43.298Z,12.15
2022-10-12T15:42:13.123Z,14.35
2022-10-12T15:44:41.758Z,12.77
2022-10-12T15:47:14.294Z,10.25
2022-10-12T15:49:41.954Z,8.27
2022-10-12T15:52:12.119Z,12.77
2022-10-12T15:54:39.644Z,8.77
2022-10-12T15:57:07.557Z,14.30
2022-10-12T15:59:35.342Z,8.63
2022-10-12T16:02:02.895Z,16.85
2022-10-12T16:04:30.754Z,6.68
2022-10-12T16:07:01.484Z,15.82
2022-10-12T16:09:28.798Z,12.70
2022-10-12T16:11:56.246Z,11.35
2022-10-12T16:14:23.810Z,10.07
2022-10-12T16:16:51.142Z,12.30
2022-10-12T16:19:18.442Z,9.98
2022-10-12T16:21:45.962Z,15.32
2022-10-12T16:24:13.529Z,6.18
2022-10-12T16:26:44.843Z,6.60
2022-10-12T16:29:12.538Z,9.00
2022-10-12T16:31:39.943Z,10.55
2022-10-12T16:34:07.447Z,10.48
2022-10-12T16:36:37.907Z,7.80
2022-10-12T16:39:05.424Z,9.80
2022-10-12T16:41:34.135Z,9.80
2022-10-12T16:44:02.135Z,7.28
2022-10-12T16:46:30.675Z,10.82
2022-10-12T16:48:59.985Z,10.75
2022-10-12T16:51:27.454Z,11.50
2022-10-12T16:53:54.977Z,10.35
2022-10-12T16:56:22.589Z,9.85
2022-10-12T16:58:50.209Z,11.48
2022-10-12T17:01:18.083Z,10.10
2022-10-12T17:03:46.651Z,17.05
2022-10-12T17:06:13.890Z,10.88
2022-10-12T17:08:41.153Z,6.65
2022-10-12T17:11:14.450Z,15.32
2022-10-12T17:13:48.068Z,16.83
2022-10-12T17:16:36.761Z,11.88
2022-10-12T17:19:04.675Z,11.15
2022-10-12T17:21:32.143Z,17.13
2022-10-12T17:24:01.744Z,6.30
2022-10-12T17:26:29.743Z,13.15
2022-10-12T17:28:57.381Z,13.02
2022-10-12T17:31:25.031Z,19.42
2022-10-12T17:33:52.569Z,20.17
2022-10-12T17:36:22.343Z,11.90
2022-10-12T17:38:56.283Z,12.95
2022-10-12T17:41:24.028Z,7.97
2022-10-12T17:43:51.785Z,15.27
2022-10-12T17:46:22.575Z,17.60
2022-10-12T17:48:51.175Z,13.70
2022-10-12T17:51:18.961Z,8.63
2022-10-12T17:53:46.693Z,16.48
2022-10-12T17:56:16.331Z,8.93
2022-10-12T17:58:44.103Z,14.75
2022-10-12T18:01:17.035Z,15.05
2022-10-12T18:03:46.988Z,12.02
2022-10-12T18:06:17.872Z,9.75
2022-10-12T18:08:45.447Z,13.38
2022-10-12T18:11:13.995Z,9.35
2022-10-12T18:13:45.918Z,11.27
2022-10-12T18:16:13.991Z,5.22
2022-10-12T18:18:42.253Z,14.85
2022-10-12T18:21:13.765Z,10.77
2022-10-12T18:23:41.796Z,9.00
2022-10-12T18:26:12.936Z,9.30
2022-10-12T18:28:42.260Z,11.63
2022-10-12T18:31:17.293Z,10.45
2022-10-12T18:33:44.941Z,9.43
2022-10-12T18:36:14.100Z,6.15
2022-10-12T18:38:41.802Z,11.00
2022-10-12T18:41:14.548Z,19.42
2022-10-12T18:43:42.266Z,21.38
2022-10-12T18:46:15.592Z,18.52
2022-10-12T18:48:43.468Z,18.55
2022-10-12T18:51:23.116Z,11.23
2022-10-12T18:53:50.757Z,16.08
2022-10-12T18:56:19.481Z,16.80
2022-10-12T18:58:47.380Z,22.25
2022-10-12T19:01:19.035Z,23.23
2022-10-12T19:03:48.594Z,23.85
2022-10-12T19:06:27.281Z,25.15
2022-10-12T19:08:56.594Z,26.83
2022-10-12T19:11:26.481Z,23.63
2022-10-12T19:14:03.289Z,25.60
2022-10-12T19:16:32.313Z,24.75
2022-10-12T19:19:20.583Z,31.35
2022-10-12T19:21:51.686Z,27.50
2022-10-12T19:24:19.273Z,25.13
2022-10-12T19:26:47.569Z,26.83
2022-10-12T19:29:16.197Z,26.92
2022-10-12T19:31:48.112Z,27.30
2022-10-12T19:34:18.540Z,31.48
2022-10-12T19:36:46.730Z,25.75
2022-10-12T19:39:19.498Z,27.23
2022-10-12T19:41:48.105Z,23.95
2022-10-12T19:44:16.070Z,27.25
2022-10-12T19:46:47.365Z,27.83
2022-10-12T19:49:16.646Z,18.50
2022-10-12T19:51:44.955Z,23.20
2022-10-12T19:54:15.218Z,26.58
2022-10-12T19:56:42.821Z,29.92
2022-10-12T19:59:10.355Z,26.20
2022-10-12T20:01:39.465Z,26.30
2022-10-12T20:04:12.172Z,32.03
2022-10-12T20:06:40.400Z,25.92
2022-10-12T20:09:09.787Z,18.75
2022-10-12T20:11:38.581Z,20.58
2022-10-12T20:14:07.453Z,20.75
2022-10-12T20:16:36.151Z,21.88
2022-10-12T20:19:05.580Z,21.58
2022-10-12T20:21:33.273Z,22.13
2022-10-12T20:24:00.822Z,26.88
2022-10-12T20:26:29.122Z,25.00
2022-10-12T20:28:57.938Z,23.95
2022-10-12T20:31:27.579Z,29.08
2022-10-12T20:33:56.330Z,30.70
2022-10-12T20:36:28.346Z,28.17
2022-10-12T20:38:57.521Z,25.20
2022-10-12T20:41:26.375Z,27.00
2022-10-12T20:44:01.278Z,24.42
2022-10-12T20:46:30.142Z,24.85
2022-10-12T20:49:01.151Z,15.38
2022-10-12T20:51:36.087Z,20.08
2022-10-12T20:56:33.927Z,19.73
2022-10-12T20:59:01.928Z,17.55
2022-10-12T21:01:29.582Z,17.65
2022-10-12T21:03:57.628Z,17.35
2022-10-12T21:06:25.349Z,22.52
2022-10-12T21:08:55.830Z,20.27
2022-10-12T21:11:24.311Z,22.55
2022-10-12T21:13:51.989Z,14.45
2022-10-12T21:16:19.725Z,17.70
2022-10-12T21:18:47.316Z,15.55
2022-10-12T21:21:19.942Z,16.50
2022-10-12T21:24:00.124Z,13.38
2022-10-12T21:26:30.188Z,13.27
2022-10-12T21:29:00.091Z,15.63
2022-10-12T21:31:32.204Z,15.05
2022-10-12T21:34:03.047Z,12.55
2022-10-12T21:36:32.226Z,13.05
2022-10-12T21:39:00.481Z,15.88
2022-10-12T21:41:30.262Z,11.50
2022-10-12T21:43:58.641Z,15.48
2022-10-12T21:46:32.137Z,14.15
2022-10-12T21:49:01.685Z,14.68
2022-10-12T21:51:32.431Z,13.13
2022-10-12T21:54:00.302Z,18.23
2022-10-12T21:56:30.842Z,11.25
2022-10-12T21:59:00.424Z,16.30
2022-10-12T22:01:36.936Z,15.02
2022-10-12T22:04:08.426Z,15.90
2022-10-12T22:06:36.366Z,13.48
2022-10-12T22:09:12.545Z,13.50
2022-10-12T22:11:40.152Z,16.50
2022-10-12T22:14:15.487Z,12.73
2022-10-12T22:16:46.428Z,15.40
2022-10-12T22:19:19.160Z,14.90
2022-10-12T22:21:51.956Z,12.55
2022-10-12T22:24:21.044Z,9.48
2022-10-12T22:26:48.686Z,13.65
2022-10-12T22:29:16.058Z,18.27
2022-10-12T22:31:44.748Z,8.57
2022-10-12T22:34:13.689Z,10.85
2022-10-12T22:36:41.082Z,9.30
2022-10-12T22:39:08.772Z,8.45
2022-10-12T22:41:36.253Z,10.43
2022-10-12T22:44:03.630Z,11.55
2022-10-12T22:46:31.100Z,12.98
2022-10-12T22:48:58.778Z,9.13
2022-10-12T22:51:32.750Z,9.93
2022-10-12T22:54:02.384Z,8.15
2022-10-12T22:56:30.769Z,10.40
2022-10-12T22:59:02.009Z,10.35
2022-10-12T23:01:30.028Z,7.07
2022-10-12T23:03:57.495Z,9.27
2022-10-12T23:06:26.221Z,8.30
2022-10-12T23:08:53.828Z,8.75
2022-10-12T23:11:26.233Z,9.38
2022-10-12T23:13:55.290Z,9.07
2022-10-12T23:16:26.872Z,6.13
2022-10-12T23:19:00.109Z,7.75
2022-10-12T23:21:29.711Z,8.63
2022-10-12T23:23:58.826Z,7.15
2022-10-12T23:26:28.575Z,10.45
2022-10-12T23:28:56.919Z,11.60
2022-10-12T23:31:28.554Z,8.43
2022-10-12T23:34:05.187Z,8.07
2022-10-12T23:36:35.154Z,7.72
2022-10-12T23:39:04.466Z,10.57
2022-10-12T23:41:32.048Z,5.80
2022-10-12T23:43:59.823Z,6.80
2022-10-12T23:46:27.289Z,7.32
2022-10-12T23:48:57.090Z,7.95
2022-10-12T23:51:24.726Z,7.97
2022-10-12T23:53:52.349Z,7.28
2022-10-12T23:56:19.831Z,5.82
2022-10-12T23:58:47.213Z,5.45
